sensor_id;sensor_type;location;lat;lon;timestamp;temperature;humidity
27922;DHT22;15261;50.356;10.340;2022-11-15T00:00:46;8.30;99.90
27922;DHT22;15261;50.356;10.340;2022-11-15T00:03:14;8.20;99.90
27922;DHT22;15261;50.356;10.340;2022-11-15T00:05:40;8.10;99.90
27922;DHT22;15261;50.356;10.340;2022-11-15T00:08:05;7.90;99.90
27922;DHT22;15261;50.356;10.340;2022-11-15T00:10:31;7.80;99.90
27922;DHT22;15261;50.356;10.340;2022-11-15T00:12:56;7.80;99.90
27922;DHT22;15261;50.356;10.340;2022-11-15T00:15:22;7.70;99.90
27922;DHT22;15261;50.356;10.340;2022-11-15T00:17:50;7.70;99.90
27922;DHT22;15261;50.356;10.340;2022-11-15T00:20:17;7.70;99.90
27922;DHT22;15261;50.356;10.340;2022-11-15T00:22:42;7.70;99.90
27922;DHT22;15261;50.356;10.340;2022-11-15T00:25:08;7.60;99.90
27922;DHT22;15261;50.356;10.340;2022-11-15T00:27:34;7.60;99.90
27922;DHT22;15261;50.356;10.340;2022-11-15T00:30:00;7.60;99.90
27922;DHT22;15261;50.356;10.340;2022-11-15T00:32:26;7.70;99.90
27922;DHT22;15261;50.356;10.340;2022-11-15T00:34:51;7.80;99.90
27922;DHT22;15261;50.356;10.340;2022-11-15T00:37:17;7.80;99.90
27922;DHT22;15261;50.356;10.340;2022-11-15T00:39:42;7.90;99.90
27922;DHT22;15261;50.356;10.340;2022-11-15T00:42:08;7.90;99.90
27922;DHT22;15261;50.356;10.340;2022-11-15T00:44:33;7.90;99.90
27922;DHT22;15261;50.356;10.340;2022-11-15T00:46:59;7.90;99.90
27922;DHT22;15261;50.356;10.340;2022-11-15T00:49:24;7.90;99.90
27922;DHT22;15261;50.356;10.340;2022-11-15T00:51:50;8.00;99.90
27922;DHT22;15261;50.356;10.340;2022-11-15T00:54:15;8.00;99.90
27922;DHT22;15261;50.356;10.340;2022-11-15T00:56:41;8.10;99.90
27922;DHT22;15261;50.356;10.340;2022-11-15T00:59:06;8.10;99.90
27922;DHT22;15261;50.356;10.340;2022-11-15T01:01:32;8.10;99.90
27922;DHT22;15261;50.356;10.340;2022-11-15T01:03:57;8.20;99.90
27922;DHT22;15261;50.356;10.340;2022-11-15T01:06:23;8.10;99.90
27922;DHT22;15261;50.356;10.340;2022-11-15T01:08:48;8.10;99.90
27922;DHT22;15261;50.356;10.340;2022-11-15T01:11:14;8.10;99.90
27922;DHT22;15261;50.356;10.340;2022-11-15T01:13:40;8.10;99.90
27922;DHT22;15261;50.356;10.340;2022-11-15T01:16:11;8.10;99.90
27922;DHT22;15261;50.356;10.340;2022-11-15T01:18:37;8.00;99.90
27922;DHT22;15261;50.356;10.340;2022-11-15T01:21:12;7.90;99.90
27922;DHT22;15261;50.356;10.340;2022-11-15T01:23:38;7.80;99.90
27922;DHT22;15261;50.356;10.340;2022-11-15T01:26:06;7.80;99.90
27922;DHT22;15261;50.356;10.340;2022-11-15T01:28:33;7.80;99.90
27922;DHT22;15261;50.356;10.340;2022-11-15T01:31:01;7.80;99.90
27922;DHT22;15261;50.356;10.340;2022-11-15T01:33:28;7.80;99.90
27922;DHT22;15261;50.356;10.340;2022-11-15T01:35:54;7.80;99.90
27922;DHT22;15261;50.356;10.340;2022-11-15T01:38:20;7.70;99.90
27922;DHT22;15261;50.356;10.340;2022-11-15T01:40:45;7.70;99.90
27922;DHT22;15261;50.356;10.340;2022-11-15T01:43:26;7.70;99.90
27922;DHT22;15261;50.356;10.340;2022-11-15T01:46:08;7.70;99.90
27922;DHT22;15261;50.356;10.340;2022-11-15T01:48:36;7.70;99.90
27922;DHT22;15261;50.356;10.340;2022-11-15T01:51:08;7.60;99.90
27922;DHT22;15261;50.356;10.340;2022-11-15T01:53:36;7.60;99.90
27922;DHT22;15261;50.356;10.340;2022-11-15T01:56:10;7.60;99.90
27922;DHT22;15261;50.356;10.340;2022-11-15T01:58:37;7.60;99.90
27922;DHT22;15261;50.356;10.340;2022-11-15T02:01:03;7.50;99.90
27922;DHT22;15261;50.356;10.340;2022-11-15T02:03:36;7.50;99.90
27922;DHT22;15261;50.356;10.340;2022-11-15T02:06:12;7.40;99.90
27922;DHT22;15261;50.356;10.340;2022-11-15T02:08:37;7.40;99.90
27922;DHT22;15261;50.356;10.340;2022-11-15T02:11:08;7.20;99.90
27922;DHT22;15261;50.356;10.340;2022-11-15T02:13:34;7.20;99.90
27922;DHT22;15261;50.356;10.340;2022-11-15T02:24:35;7.40;99.90
27922;DHT22;15261;50.356;10.340;2022-11-15T02:27:20;7.30;99.90
27922;DHT22;15261;50.356;10.340;2022-11-15T02:30:21;7.30;99.90
27922;DHT22;15261;50.356;10.340;2022-11-15T02:35:50;7.10;99.90
27922;DHT22;15261;50.356;10.340;2022-11-15T02:38:31;7.10;99.90
27922;DHT22;15261;50.356;10.340;2022-11-15T02:41:13;7.00;99.90
27922;DHT22;15261;50.356;10.340;2022-11-15T02:44:46;6.90;99.90
27922;DHT22;15261;50.356;10.340;2022-11-15T02:46:49;7.00;99.90
27922;DHT22;15261;50.356;10.340;2022-11-15T02:49:34;6.90;99.90
27922;DHT22;15261;50.356;10.340;2022-11-15T02:52:00;6.90;99.90
27922;DHT22;15261;50.356;10.340;2022-11-15T02:54:30;6.90;99.90
27922;DHT22;15261;50.356;10.340;2022-11-15T02:57:10;6.80;99.90
27922;DHT22;15261;50.356;10.340;2022-11-15T03:05:50;6.50;99.90
27922;DHT22;15261;50.356;10.340;2022-11-15T03:11:24;6.50;99.90
27922;DHT22;15261;50.356;10.340;2022-11-15T03:14:19;6.50;99.90
27922;DHT22;15261;50.356;10.340;2022-11-15T03:17:02;6.60;99.90
27922;DHT22;15261;50.356;10.340;2022-11-15T03:19:40;6.60;99.90
27922;DHT22;15261;50.356;10.340;2022-11-15T03:22:11;6.70;99.90
27922;DHT22;15261;50.356;10.340;2022-11-15T03:24:38;6.70;99.90
27922;DHT22;15261;50.356;10.340;2022-11-15T03:27:06;6.80;99.90
27922;DHT22;15261;50.356;10.340;2022-11-15T03:29:37;6.80;99.90
27922;DHT22;15261;50.356;10.340;2022-11-15T03:32:12;6.80;99.90
27922;DHT22;15261;50.356;10.340;2022-11-15T03:34:49;6.80;99.90
27922;DHT22;15261;50.356;10.340;2022-11-15T03:37:17;6.70;99.90
27922;DHT22;15261;50.356;10.340;2022-11-15T03:39:45;6.70;99.90
27922;DHT22;15261;50.356;10.340;2022-11-15T03:42:30;6.60;99.90
27922;DHT22;15261;50.356;10.340;2022-11-15T03:45:41;6.40;99.90
27922;DHT22;15261;50.356;10.340;2022-11-15T03:48:16;6.40;99.90
27922;DHT22;15261;50.356;10.340;2022-11-15T03:50:43;6.20;99.90
27922;DHT22;15261;50.356;10.340;2022-11-15T03:53:10;6.10;99.90
27922;DHT22;15261;50.356;10.340;2022-11-15T03:58:58;5.90;99.90
27922;DHT22;15261;50.356;10.340;2022-11-15T04:01:23;5.90;99.90
27922;DHT22;15261;50.356;10.340;2022-11-15T04:03:49;5.80;99.90
27922;DHT22;15261;50.356;10.340;2022-11-15T04:06:14;5.80;99.90
27922;DHT22;15261;50.356;10.340;2022-11-15T04:08:40;5.70;99.90
27922;DHT22;15261;50.356;10.340;2022-11-15T04:11:05;5.60;99.90
27922;DHT22;15261;50.356;10.340;2022-11-15T04:13:31;5.60;99.90
27922;DHT22;15261;50.356;10.340;2022-11-15T04:15:56;5.50;99.90
27922;DHT22;15261;50.356;10.340;2022-11-15T04:18:22;5.40;99.90
27922;DHT22;15261;50.356;10.340;2022-11-15T04:20:49;5.40;99.90
27922;DHT22;15261;50.356;10.340;2022-11-15T04:23:33;5.30;99.90
27922;DHT22;15261;50.356;10.340;2022-11-15T04:26:20;5.20;99.90
27922;DHT22;15261;50.356;10.340;2022-11-15T04:28:46;5.20;99.90
27922;DHT22;15261;50.356;10.340;2022-11-15T04:31:30;5.10;99.90
27922;DHT22;15261;50.356;10.340;2022-11-15T04:33:56;5.10;99.90
27922;DHT22;15261;50.356;10.340;2022-11-15T04:36:22;5.10;99.90
27922;DHT22;15261;50.356;10.340;2022-11-15T04:39:06;5.10;99.90
27922;DHT22;15261;50.356;10.340;2022-11-15T04:41:31;5.00;99.90
27922;DHT22;15261;50.356;10.340;2022-11-15T04:43:57;5.00;99.90
27922;DHT22;15261;50.356;10.340;2022-11-15T04:46:23;5.00;99.90
27922;DHT22;15261;50.356;10.340;2022-11-15T04:48:50;5.00;99.90
27922;DHT22;15261;50.356;10.340;2022-11-15T04:51:16;4.90;99.90
27922;DHT22;15261;50.356;10.340;2022-11-15T04:53:41;4.90;99.90
27922;DHT22;15261;50.356;10.340;2022-11-15T04:56:07;4.90;99.90
27922;DHT22;15261;50.356;10.340;2022-11-15T04:58:33;4.80;99.90
27922;DHT22;15261;50.356;10.340;2022-11-15T05:01:09;4.80;99.90
27922;DHT22;15261;50.356;10.340;2022-11-15T05:03:35;4.70;99.90
27922;DHT22;15261;50.356;10.340;2022-11-15T05:06:19;4.70;99.90
27922;DHT22;15261;50.356;10.340;2022-11-15T05:08:45;4.60;99.90
27922;DHT22;15261;50.356;10.340;2022-11-15T05:14:31;4.50;99.90
27922;DHT22;15261;50.356;10.340;2022-11-15T05:16:57;4.50;99.90
27922;DHT22;15261;50.356;10.340;2022-11-15T05:19:22;4.50;99.90
27922;DHT22;15261;50.356;10.340;2022-11-15T05:21:48;4.40;99.90
27922;DHT22;15261;50.356;10.340;2022-11-15T05:24:14;4.40;99.90
27922;DHT22;15261;50.356;10.340;2022-11-15T05:26:39;4.40;99.90
27922;DHT22;15261;50.356;10.340;2022-11-15T05:29:05;4.40;99.90
27922;DHT22;15261;50.356;10.340;2022-11-15T05:31:30;4.50;99.90
27922;DHT22;15261;50.356;10.340;2022-11-15T05:34:04;4.50;99.90
27922;DHT22;15261;50.356;10.340;2022-11-15T05:36:42;4.40;99.90
27922;DHT22;15261;50.356;10.340;2022-11-15T05:39:09;4.40;99.90
27922;DHT22;15261;50.356;10.340;2022-11-15T05:41:50;4.40;99.90
27922;DHT22;15261;50.356;10.340;2022-11-15T05:44:21;4.40;99.90
27922;DHT22;15261;50.356;10.340;2022-11-15T05:46:48;4.40;99.90
27922;DHT22;15261;50.356;10.340;2022-11-15T05:49:17;4.40;99.90
27922;DHT22;15261;50.356;10.340;2022-11-15T05:51:45;4.40;99.90
27922;DHT22;15261;50.356;10.340;2022-11-15T05:54:12;4.40;99.90
27922;DHT22;15261;50.356;10.340;2022-11-15T05:56:39;4.40;99.90
27922;DHT22;15261;50.356;10.340;2022-11-15T05:59:05;4.30;99.90
27922;DHT22;15261;50.356;10.340;2022-11-15T06:01:31;4.30;99.90
27922;DHT22;15261;50.356;10.340;2022-11-15T06:03:56;4.40;99.90
27922;DHT22;15261;50.356;10.340;2022-11-15T06:06:22;4.40;99.90
27922;DHT22;15261;50.356;10.340;2022-11-15T06:08:48;4.40;99.90
27922;DHT22;15261;50.356;10.340;2022-11-15T06:11:14;4.40;99.90
27922;DHT22;15261;50.356;10.340;2022-11-15T06:13:39;4.30;99.90
27922;DHT22;15261;50.356;10.340;2022-11-15T06:16:05;4.20;99.90
27922;DHT22;15261;50.356;10.340;2022-11-15T06:18:34;4.20;99.90
27922;DHT22;15261;50.356;10.340;2022-11-15T06:21:01;4.20;99.90
27922;DHT22;15261;50.356;10.340;2022-11-15T06:23:27;4.20;99.90
27922;DHT22;15261;50.356;10.340;2022-11-15T06:25:53;4.10;99.90
27922;DHT22;15261;50.356;10.340;2022-11-15T06:28:18;4.10;99.90
27922;DHT22;15261;50.356;10.340;2022-11-15T06:30:46;4.10;99.90
27922;DHT22;15261;50.356;10.340;2022-11-15T06:33:11;4.10;99.90
27922;DHT22;15261;50.356;10.340;2022-11-15T06:35:37;4.00;99.90
27922;DHT22;15261;50.356;10.340;2022-11-15T06:38:05;4.00;99.90
27922;DHT22;15261;50.356;10.340;2022-11-15T06:40:33;4.10;99.90
27922;DHT22;15261;50.356;10.340;2022-11-15T06:42:59;4.00;99.90
27922;DHT22;15261;50.356;10.340;2022-11-15T06:45:41;4.00;99.90
27922;DHT22;15261;50.356;10.340;2022-11-15T06:48:06;3.90;99.90
27922;DHT22;15261;50.356;10.340;2022-11-15T06:50:32;3.90;99.90
27922;DHT22;15261;50.356;10.340;2022-11-15T06:53:01;3.80;99.90
27922;DHT22;15261;50.356;10.340;2022-11-15T06:55:27;3.80;99.90
27922;DHT22;15261;50.356;10.340;2022-11-15T06:57:52;3.80;99.90
27922;DHT22;15261;50.356;10.340;2022-11-15T07:00:20;3.90;99.90
27922;DHT22;15261;50.356;10.340;2022-11-15T07:02:46;3.90;99.90
27922;DHT22;15261;50.356;10.340;2022-11-15T07:05:13;3.90;99.90
27922;DHT22;15261;50.356;10.340;2022-11-15T07:07:39;3.90;99.90
27922;DHT22;15261;50.356;10.340;2022-11-15T07:10:05;4.00;99.90
27922;DHT22;15261;50.356;10.340;2022-11-15T07:12:31;3.90;99.90
27922;DHT22;15261;50.356;10.340;2022-11-15T07:14:57;4.00;99.90
27922;DHT22;15261;50.356;10.340;2022-11-15T07:17:22;4.00;99.90
27922;DHT22;15261;50.356;10.340;2022-11-15T07:19:48;4.10;99.90
27922;DHT22;15261;50.356;10.340;2022-11-15T07:22:13;4.30;99.90
27922;DHT22;15261;50.356;10.340;2022-11-15T07:24:39;4.30;99.90
27922;DHT22;15261;50.356;10.340;2022-11-15T07:27:04;4.40;99.90
27922;DHT22;15261;50.356;10.340;2022-11-15T07:29:30;4.60;99.90
27922;DHT22;15261;50.356;10.340;2022-11-15T07:31:55;4.70;99.90
27922;DHT22;15261;50.356;10.340;2022-11-15T07:34:21;4.80;99.90
27922;DHT22;15261;50.356;10.340;2022-11-15T07:36:47;4.90;99.90
27922;DHT22;15261;50.356;10.340;2022-11-15T07:39:12;5.10;99.90
27922;DHT22;15261;50.356;10.340;2022-11-15T07:41:39;5.20;99.90
27922;DHT22;15261;50.356;10.340;2022-11-15T07:44:05;5.30;99.90
27922;DHT22;15261;50.356;10.340;2022-11-15T07:46:31;5.50;99.90
27922;DHT22;15261;50.356;10.340;2022-11-15T07:48:57;5.60;99.90
27922;DHT22;15261;50.356;10.340;2022-11-15T07:51:23;5.70;99.90
27922;DHT22;15261;50.356;10.340;2022-11-15T07:53:48;5.90;99.90
27922;DHT22;15261;50.356;10.340;2022-11-15T07:56:14;5.90;99.90
27922;DHT22;15261;50.356;10.340;2022-11-15T07:58:40;6.10;99.90
27922;DHT22;15261;50.356;10.340;2022-11-15T08:01:06;6.20;99.90
27922;DHT22;15261;50.356;10.340;2022-11-15T08:03:33;6.30;99.90
27922;DHT22;15261;50.356;10.340;2022-11-15T08:05:58;6.30;99.90
27922;DHT22;15261;50.356;10.340;2022-11-15T08:08:24;6.40;99.90
27922;DHT22;15261;50.356;10.340;2022-11-15T08:10:50;6.50;99.90
27922;DHT22;15261;50.356;10.340;2022-11-15T08:13:15;6.50;99.90
27922;DHT22;15261;50.356;10.340;2022-11-15T08:15:41;6.50;99.90
27922;DHT22;15261;50.356;10.340;2022-11-15T08:18:16;6.50;99.90
27922;DHT22;15261;50.356;10.340;2022-11-15T08:20:42;6.60;99.90
27922;DHT22;15261;50.356;10.340;2022-11-15T08:23:10;6.60;99.90
27922;DHT22;15261;50.356;10.340;2022-11-15T08:25:36;6.60;99.90
27922;DHT22;15261;50.356;10.340;2022-11-15T08:28:05;6.60;99.90
27922;DHT22;15261;50.356;10.340;2022-11-15T08:30:33;6.60;99.90
27922;DHT22;15261;50.356;10.340;2022-11-15T08:32:59;6.50;99.90
27922;DHT22;15261;50.356;10.340;2022-11-15T08:35:25;6.60;99.90
27922;DHT22;15261;50.356;10.340;2022-11-15T08:37:52;6.70;99.90
27922;DHT22;15261;50.356;10.340;2022-11-15T08:40:18;6.70;99.90
27922;DHT22;15261;50.356;10.340;2022-11-15T08:42:46;6.70;99.90
27922;DHT22;15261;50.356;10.340;2022-11-15T08:45:12;6.60;99.90
27922;DHT22;15261;50.356;10.340;2022-11-15T08:47:38;6.60;99.90
27922;DHT22;15261;50.356;10.340;2022-11-15T08:50:04;6.60;99.90
27922;DHT22;15261;50.356;10.340;2022-11-15T08:52:29;6.70;99.90
27922;DHT22;15261;50.356;10.340;2022-11-15T08:54:55;6.80;99.90
27922;DHT22;15261;50.356;10.340;2022-11-15T08:57:20;6.90;99.90
27922;DHT22;15261;50.356;10.340;2022-11-15T08:59:46;7.10;99.90
27922;DHT22;15261;50.356;10.340;2022-11-15T09:02:13;7.20;99.90
27922;DHT22;15261;50.356;10.340;2022-11-15T09:04:43;7.30;99.90
27922;DHT22;15261;50.356;10.340;2022-11-15T09:07:11;7.50;99.90
27922;DHT22;15261;50.356;10.340;2022-11-15T09:09:38;7.50;99.90
27922;DHT22;15261;50.356;10.340;2022-11-15T09:12:06;7.60;99.90
27922;DHT22;15261;50.356;10.340;2022-11-15T09:14:31;7.70;99.90
27922;DHT22;15261;50.356;10.340;2022-11-15T09:16:57;7.80;99.90
27922;DHT22;15261;50.356;10.340;2022-11-15T09:19:23;7.90;99.90
27922;DHT22;15261;50.356;10.340;2022-11-15T09:21:49;8.00;99.90
27922;DHT22;15261;50.356;10.340;2022-11-15T09:24:14;8.10;99.90
27922;DHT22;15261;50.356;10.340;2022-11-15T09:26:40;8.20;99.90
27922;DHT22;15261;50.356;10.340;2022-11-15T09:29:06;8.30;99.90
27922;DHT22;15261;50.356;10.340;2022-11-15T09:31:32;8.30;99.90
27922;DHT22;15261;50.356;10.340;2022-11-15T09:33:57;8.40;99.90
27922;DHT22;15261;50.356;10.340;2022-11-15T09:36:23;8.50;99.90
27922;DHT22;15261;50.356;10.340;2022-11-15T09:38:49;8.50;99.90
27922;DHT22;15261;50.356;10.340;2022-11-15T09:41:25;8.60;99.90
27922;DHT22;15261;50.356;10.340;2022-11-15T09:47:10;8.80;99.90
27922;DHT22;15261;50.356;10.340;2022-11-15T09:49:45;8.80;99.90
27922;DHT22;15261;50.356;10.340;2022-11-15T09:52:20;8.80;99.90
27922;DHT22;15261;50.356;10.340;2022-11-15T09:54:51;9.00;99.90
27922;DHT22;15261;50.356;10.340;2022-11-15T10:00:28;9.20;99.90
27922;DHT22;15261;50.356;10.340;2022-11-15T10:03:17;9.30;99.90
27922;DHT22;15261;50.356;10.340;2022-11-15T10:05:48;9.30;99.90
27922;DHT22;15261;50.356;10.340;2022-11-15T10:11:02;9.40;99.90
27922;DHT22;15261;50.356;10.340;2022-11-15T10:13:32;9.50;99.90
27922;DHT22;15261;50.356;10.340;2022-11-15T10:18:59;9.50;99.90
27922;DHT22;15261;50.356;10.340;2022-11-15T10:24:44;9.60;99.90
27922;DHT22;15261;50.356;10.340;2022-11-15T10:27:15;9.70;99.90
27922;DHT22;15261;50.356;10.340;2022-11-15T10:29:49;9.80;99.90
27922;DHT22;15261;50.356;10.340;2022-11-15T10:32:18;9.80;99.90
27922;DHT22;15261;50.356;10.340;2022-11-15T10:34:45;9.80;99.90
27922;DHT22;15261;50.356;10.340;2022-11-15T10:37:10;9.90;99.90
27922;DHT22;15261;50.356;10.340;2022-11-15T10:39:37;9.90;99.90
27922;DHT22;15261;50.356;10.340;2022-11-15T10:42:26;9.90;99.90
27922;DHT22;15261;50.356;10.340;2022-11-15T10:44:53;10.00;99.90
27922;DHT22;15261;50.356;10.340;2022-11-15T10:47:27;10.00;99.90
27922;DHT22;15261;50.356;10.340;2022-11-15T10:50:38;10.10;99.90
27922;DHT22;15261;50.356;10.340;2022-11-15T10:52:46;10.10;99.90
27922;DHT22;15261;50.356;10.340;2022-11-15T10:57:49;10.20;99.90
27922;DHT22;15261;50.356;10.340;2022-11-15T11:05:39;10.20;99.90
27922;DHT22;15261;50.356;10.340;2022-11-15T11:10:36;10.30;99.90
27922;DHT22;15261;50.356;10.340;2022-11-15T11:13:15;10.50;99.90
27922;DHT22;15261;50.356;10.340;2022-11-15T11:15:59;10.40;99.90
27922;DHT22;15261;50.356;10.340;2022-11-15T11:18:31;10.50;99.90
27922;DHT22;15261;50.356;10.340;2022-11-15T11:21:08;10.50;99.90
27922;DHT22;15261;50.356;10.340;2022-11-15T11:23:53;10.50;99.90
27922;DHT22;15261;50.356;10.340;2022-11-15T11:32:19;10.70;99.90
27922;DHT22;15261;50.356;10.340;2022-11-15T11:37:59;10.80;99.90
27922;DHT22;15261;50.356;10.340;2022-11-15T11:41:15;10.80;99.90
27922;DHT22;15261;50.356;10.340;2022-11-15T11:43:59;10.80;99.90
27922;DHT22;15261;50.356;10.340;2022-11-15T11:49:12;10.60;99.90
27922;DHT22;15261;50.356;10.340;2022-11-15T11:51:48;10.50;99.90
27922;DHT22;15261;50.356;10.340;2022-11-15T11:54:32;10.50;99.90
27922;DHT22;15261;50.356;10.340;2022-11-15T11:57:03;10.50;99.90
27922;DHT22;15261;50.356;10.340;2022-11-15T11:59:49;10.50;99.90
27922;DHT22;15261;50.356;10.340;2022-11-15T12:02:28;10.50;99.90
27922;DHT22;15261;50.356;10.340;2022-11-15T12:07:45;10.80;99.90
27922;DHT22;15261;50.356;10.340;2022-11-15T12:13:10;11.20;99.90
27922;DHT22;15261;50.356;10.340;2022-11-15T12:15:45;11.30;99.90
27922;DHT22;15261;50.356;10.340;2022-11-15T12:18:14;11.40;99.90
27922;DHT22;15261;50.356;10.340;2022-11-15T12:20:50;11.50;99.90
27922;DHT22;15261;50.356;10.340;2022-11-15T12:23:23;11.50;99.90
27922;DHT22;15261;50.356;10.340;2022-11-15T12:25:57;11.50;99.90
27922;DHT22;15261;50.356;10.340;2022-11-15T12:31:18;11.60;99.90
27922;DHT22;15261;50.356;10.340;2022-11-15T12:33:47;11.70;99.90
27922;DHT22;15261;50.356;10.340;2022-11-15T12:41:21;12.00;99.90
27922;DHT22;15261;50.356;10.340;2022-11-15T12:43:48;12.10;99.90
27922;DHT22;15261;50.356;10.340;2022-11-15T13:02:39;12.00;99.90
27922;DHT22;15261;50.356;10.340;2022-11-15T13:17:52;11.70;99.90
27922;DHT22;15261;50.356;10.340;2022-11-15T13:20:20;11.60;99.90
27922;DHT22;15261;50.356;10.340;2022-11-15T13:25:36;11.50;99.90
27922;DHT22;15261;50.356;10.340;2022-11-15T13:31:02;11.30;99.90
27922;DHT22;15261;50.356;10.340;2022-11-15T13:33:37;11.20;99.90
27922;DHT22;15261;50.356;10.340;2022-11-15T13:36:08;11.10;99.90
27922;DHT22;15261;50.356;10.340;2022-11-15T13:38:39;10.90;99.90
27922;DHT22;15261;50.356;10.340;2022-11-15T13:41:22;10.90;99.90
27922;DHT22;15261;50.356;10.340;2022-11-15T13:43:50;10.80;99.90
27922;DHT22;15261;50.356;10.340;2022-11-15T13:46:24;10.70;99.90
27922;DHT22;15261;50.356;10.340;2022-11-15T13:48:53;10.60;99.90
27922;DHT22;15261;50.356;10.340;2022-11-15T13:54:35;10.50;99.90
27922;DHT22;15261;50.356;10.340;2022-11-15T13:57:03;10.40;99.90
27922;DHT22;15261;50.356;10.340;2022-11-15T13:59:37;10.40;99.90
27922;DHT22;15261;50.356;10.340;2022-11-15T14:02:17;10.40;99.90
27922;DHT22;15261;50.356;10.340;2022-11-15T14:04:53;10.40;99.90
27922;DHT22;15261;50.356;10.340;2022-11-15T14:07:20;10.40;99.90
27922;DHT22;15261;50.356;10.340;2022-11-15T14:09:47;10.30;99.90
27922;DHT22;15261;50.356;10.340;2022-11-15T14:14:50;10.30;99.90
27922;DHT22;15261;50.356;10.340;2022-11-15T14:19:55;10.30;99.90
27922;DHT22;15261;50.356;10.340;2022-11-15T14:22:22;10.40;99.90
27922;DHT22;15261;50.356;10.340;2022-11-15T14:25:18;10.40;99.90
27922;DHT22;15261;50.356;10.340;2022-11-15T14:30:36;10.50;99.90
27922;DHT22;15261;50.356;10.340;2022-11-15T14:33:31;10.50;99.90
27922;DHT22;15261;50.356;10.340;2022-11-15T14:38:31;10.60;99.90
27922;DHT22;15261;50.356;10.340;2022-11-15T14:40:56;10.60;99.90
27922;DHT22;15261;50.356;10.340;2022-11-15T14:43:22;10.60;99.90
27922;DHT22;15261;50.356;10.340;2022-11-15T14:45:48;10.60;99.90
27922;DHT22;15261;50.356;10.340;2022-11-15T14:48:14;10.60;99.90
27922;DHT22;15261;50.356;10.340;2022-11-15T14:50:39;10.50;99.90
27922;DHT22;15261;50.356;10.340;2022-11-15T14:53:05;10.50;99.90
27922;DHT22;15261;50.356;10.340;2022-11-15T14:55:35;10.40;99.90
27922;DHT22;15261;50.356;10.340;2022-11-15T14:58:05;10.40;99.90
27922;DHT22;15261;50.356;10.340;2022-11-15T15:00:37;10.40;99.90
27922;DHT22;15261;50.356;10.340;2022-11-15T15:03:04;10.40;99.90
27922;DHT22;15261;50.356;10.340;2022-11-15T15:05:38;10.40;99.90
27922;DHT22;15261;50.356;10.340;2022-11-15T15:08:05;10.30;99.90
27922;DHT22;15261;50.356;10.340;2022-11-15T15:10:36;10.30;99.90
27922;DHT22;15261;50.356;10.340;2022-11-15T15:13:03;10.30;99.90
27922;DHT22;15261;50.356;10.340;2022-11-15T15:15:35;10.20;99.90
27922;DHT22;15261;50.356;10.340;2022-11-15T15:18:01;10.20;99.90
27922;DHT22;15261;50.356;10.340;2022-11-15T15:20:28;10.10;99.90
27922;DHT22;15261;50.356;10.340;2022-11-15T15:22:54;10.10;99.90
27922;DHT22;15261;50.356;10.340;2022-11-15T15:25:43;10.00;99.90
27922;DHT22;15261;50.356;10.340;2022-11-15T15:28:11;9.90;99.90
27922;DHT22;15261;50.356;10.340;2022-11-15T15:30:36;9.70;99.90
27922;DHT22;15261;50.356;10.340;2022-11-15T15:33:02;9.60;99.90
27922;DHT22;15261;50.356;10.340;2022-11-15T15:35:30;9.60;99.90
27922;DHT22;15261;50.356;10.340;2022-11-15T15:37:56;9.40;99.90
27922;DHT22;15261;50.356;10.340;2022-11-15T15:40:23;9.40;99.90
27922;DHT22;15261;50.356;10.340;2022-11-15T15:42:49;9.30;99.90
27922;DHT22;15261;50.356;10.340;2022-11-15T15:45:16;9.30;99.90
27922;DHT22;15261;50.356;10.340;2022-11-15T15:47:42;9.30;99.90
27922;DHT22;15261;50.356;10.340;2022-11-15T15:50:29;9.30;99.90
27922;DHT22;15261;50.356;10.340;2022-11-15T15:52:57;9.30;99.90
27922;DHT22;15261;50.356;10.340;2022-11-15T15:55:23;9.20;99.90
27922;DHT22;15261;50.356;10.340;2022-11-15T15:57:49;9.20;99.90
27922;DHT22;15261;50.356;10.340;2022-11-15T16:00:16;9.20;99.90
27922;DHT22;15261;50.356;10.340;2022-11-15T16:02:42;9.10;99.90
27922;DHT22;15261;50.356;10.340;2022-11-15T16:05:09;9.10;99.90
27922;DHT22;15261;50.356;10.340;2022-11-15T16:07:35;9.00;99.90
27922;DHT22;15261;50.356;10.340;2022-11-15T16:10:02;8.90;99.90
27922;DHT22;15261;50.356;10.340;2022-11-15T16:12:34;8.90;99.90
27922;DHT22;15261;50.356;10.340;2022-11-15T16:15:00;8.90;99.90
27922;DHT22;15261;50.356;10.340;2022-11-15T16:17:30;8.90;99.90
27922;DHT22;15261;50.356;10.340;2022-11-15T16:19:56;8.90;99.90
27922;DHT22;15261;50.356;10.340;2022-11-15T16:22:21;8.90;99.90
27922;DHT22;15261;50.356;10.340;2022-11-15T16:24:47;8.90;99.90
27922;DHT22;15261;50.356;10.340;2022-11-15T16:27:18;8.90;99.90
27922;DHT22;15261;50.356;10.340;2022-11-15T16:29:45;8.80;99.90
27922;DHT22;15261;50.356;10.340;2022-11-15T16:32:11;8.90;99.90
27922;DHT22;15261;50.356;10.340;2022-11-15T16:34:37;8.80;99.90
27922;DHT22;15261;50.356;10.340;2022-11-15T16:37:02;8.80;99.90
27922;DHT22;15261;50.356;10.340;2022-11-15T16:39:28;8.90;99.90
27922;DHT22;15261;50.356;10.340;2022-11-15T16:41:56;8.90;99.90
27922;DHT22;15261;50.356;10.340;2022-11-15T16:44:22;8.90;99.90
27922;DHT22;15261;50.356;10.340;2022-11-15T16:46:49;9.00;99.90
27922;DHT22;15261;50.356;10.340;2022-11-15T16:49:17;9.00;99.90
27922;DHT22;15261;50.356;10.340;2022-11-15T16:51:48;9.20;99.90
27922;DHT22;15261;50.356;10.340;2022-11-15T16:54:14;9.30;99.90
27922;DHT22;15261;50.356;10.340;2022-11-15T16:56:41;9.40;99.90
27922;DHT22;15261;50.356;10.340;2022-11-15T16:59:10;9.40;99.90
27922;DHT22;15261;50.356;10.340;2022-11-15T17:01:39;9.30;99.90
27922;DHT22;15261;50.356;10.340;2022-11-15T17:04:11;9.30;99.90
27922;DHT22;15261;50.356;10.340;2022-11-15T17:06:41;9.40;99.90
27922;DHT22;15261;50.356;10.340;2022-11-15T17:09:19;9.30;99.90
27922;DHT22;15261;50.356;10.340;2022-11-15T17:11:45;9.20;99.90
27922;DHT22;15261;50.356;10.340;2022-11-15T17:14:11;9.10;99.90
27922;DHT22;15261;50.356;10.340;2022-11-15T17:16:38;9.00;99.90
27922;DHT22;15261;50.356;10.340;2022-11-15T17:19:14;9.00;99.90
27922;DHT22;15261;50.356;10.340;2022-11-15T17:21:41;8.90;99.90
27922;DHT22;15261;50.356;10.340;2022-11-15T17:24:07;8.90;99.90
27922;DHT22;15261;50.356;10.340;2022-11-15T17:26:33;8.80;99.90
27922;DHT22;15261;50.356;10.340;2022-11-15T17:28:59;8.70;99.90
27922;DHT22;15261;50.356;10.340;2022-11-15T17:31:33;8.60;99.90
27922;DHT22;15261;50.356;10.340;2022-11-15T17:34:00;8.60;99.90
27922;DHT22;15261;50.356;10.340;2022-11-15T17:36:26;8.70;99.90
27922;DHT22;15261;50.356;10.340;2022-11-15T17:38:51;8.70;99.90
27922;DHT22;15261;50.356;10.340;2022-11-15T17:44:23;8.90;99.90
27922;DHT22;15261;50.356;10.340;2022-11-15T17:46:49;9.00;99.90
27922;DHT22;15261;50.356;10.340;2022-11-15T17:49:15;9.00;99.90
27922;DHT22;15261;50.356;10.340;2022-11-15T17:51:41;9.00;99.90